createdAt,value
2023-05-07T05:04:59.957Z,98281.63
2023-05-07T05:10:03.827Z,98275.47
2023-05-07T05:15:08.678Z,98272.44
2023-05-07T05:20:11.973Z,98269.75
2023-05-07T05:25:15.579Z,98282.94
2023-05-07T05:30:17.659Z,98289.06
2023-05-07T05:35:21.706Z,98293.38
2023-05-07T05:40:24.224Z,98303.44
2023-05-07T05:45:25.903Z,98294.06
2023-05-07T05:50:27.417Z,98299.41
2023-05-07T05:55:30.514Z,98314.78
2023-05-07T06:00:33.094Z,98310.66
2023-05-07T06:05:38.999Z,98329.00
2023-05-07T06:10:40.955Z,98327.09
2023-05-07T06:15:43.764Z,98333.06
2023-05-07T06:20:47.939Z,98339.13
2023-05-07T06:25:58.382Z,98337.03
2023-05-07T06:31:16.210Z,98327.88
2023-05-07T06:36:21.480Z,98344.47
2023-05-07T06:41:23.279Z,98345.81
2023-05-07T06:46:24.938Z,98363.53
2023-05-07T06:51:26.602Z,98346.53
2023-05-07T06:56:28.126Z,98356.75
2023-05-07T07:01:30.258Z,98351.34
2023-05-07T07:06:33.195Z,98366.69
2023-05-07T07:11:36.852Z,98363.81
2023-05-07T07:16:39.159Z,98363.47
2023-05-07T07:21:40.987Z,98363.41
2023-05-07T07:26:43.624Z,98363.72
2023-05-07T07:31:45.599Z,98378.28
2023-05-07T07:36:47.562Z,98363.41
2023-05-07T07:41:52.671Z,98365.25
2023-05-07T07:46:59.463Z,98373.44
2023-05-07T07:52:02.690Z,98383.03
2023-05-07T07:57:06.039Z,98387.25
2023-05-07T08:02:09.049Z,98396.81
2023-05-07T08:07:13.193Z,98399.66
2023-05-07T08:12:21.267Z,98400.00
2023-05-07T08:17:23.709Z,98406.00
2023-05-07T08:22:29.689Z,98396.81
2023-05-07T08:27:31.240Z,98396.41
2023-05-07T08:32:36.420Z,98391.59
2023-05-07T08:37:38.022Z,98399.88
2023-05-07T08:42:48.135Z,98399.88
2023-05-07T08:48:12.122Z,98417.63
2023-05-07T08:53:15.119Z,98417.75
2023-05-07T08:58:17.125Z,98414.34
2023-05-07T09:03:21.943Z,98426.19
2023-05-07T09:08:34.412Z,98427.97
2023-05-07T09:13:41.454Z,98425.84
2023-05-07T09:18:51.656Z,98432.53
2023-05-07T09:23:56.123Z,98429.78
2023-05-07T09:29:08.896Z,98433.56
2023-05-07T09:34:26.139Z,98433.84
2023-05-07T09:39:55.038Z,98428.28
2023-05-07T09:45:09.099Z,98425.91
2023-05-07T09:50:20.249Z,98424.59
2023-05-07T09:55:40.467Z,98427.31
2023-05-07T10:00:49.480Z,98430.19
2023-05-07T10:05:55.505Z,98441.84
2023-05-07T10:11:00.562Z,98442.91
2023-05-07T10:16:13.315Z,98436.53
2023-05-07T10:21:25.145Z,98438.44
2023-05-07T10:26:42.060Z,98441.84
2023-05-07T10:32:19.907Z,98436.81
2023-05-07T10:37:28.710Z,98442.44
2023-05-07T10:42:34.749Z,98437.53
2023-05-07T10:47:36.803Z,98451.19
2023-05-07T10:52:38.474Z,98431.50
2023-05-07T10:57:52.198Z,98447.03
2023-05-07T11:03:16.102Z,98456.63
2023-05-07T11:08:39.098Z,98445.78
2023-05-07T11:13:53.285Z,98442.06
2023-05-07T11:19:11.205Z,98445.78
2023-05-07T11:24:31.982Z,98444.91
2023-05-07T11:29:47.508Z,98444.03
2023-05-07T11:35:11.698Z,98447.72
2023-05-07T11:40:40.985Z,98438.56
2023-05-07T11:45:48.215Z,98445.63
2023-05-07T11:51:06.167Z,98440.00
2023-05-07T11:56:24.143Z,98442.78
2023-05-07T12:01:36.101Z,98445.88
2023-05-07T12:06:52.632Z,98456.97
2023-05-07T12:12:06.580Z,98455.00
2023-05-07T12:17:24.628Z,98455.22
2023-05-07T12:22:47.540Z,98452.53
2023-05-07T12:28:16.903Z,98462.06
2023-05-07T12:33:26.738Z,98468.44
2023-05-07T12:38:41.686Z,98455.63
2023-05-07T12:43:58.279Z,98440.94
2023-05-07T12:48:59.878Z,98458.72
2023-05-07T12:54:22.242Z,98450.41
2023-05-07T12:59:49.666Z,98450.38
2023-05-07T13:05:28.021Z,98449.56
2023-05-07T13:10:50.494Z,98448.19
2023-05-07T13:16:01.418Z,98446.13
2023-05-07T13:21:15.456Z,98443.00
2023-05-07T13:26:52.018Z,98433.53
2023-05-07T13:32:05.814Z,98425.44
2023-05-07T13:37:22.332Z,98429.78
2023-05-07T13:42:38.928Z,98422.72
2023-05-07T13:47:59.787Z,98428.88
2023-05-07T13:53:22.776Z,98423.13
2023-05-07T13:58:36.543Z,98434.13
2023-05-07T14:04:07.744Z,98441.38
2023-05-07T14:10:05.900Z,98442.63
2023-05-07T14:15:34.229Z,98432.81
2023-05-07T14:20:53.870Z,98424.53
2023-05-07T14:26:19.627Z,98420.75
2023-05-07T14:31:51.921Z,98421.56
2023-05-07T14:42:42.864Z,98405.03
2023-05-07T14:48:12.415Z,98412.06
2023-05-07T14:53:22.805Z,98414.34
2023-05-07T14:58:30.333Z,98430.25
2023-05-07T15:03:50.804Z,98432.66
2023-05-07T15:09:22.214Z,98427.09
2023-05-07T15:15:09.550Z,98425.19
2023-05-07T15:20:29.067Z,98427.63
2023-05-07T15:31:29.860Z,98428.03
2023-05-07T15:37:33.303Z,98431.53
2023-05-07T15:43:33.271Z,98445.38
2023-05-07T15:48:58.843Z,98447.78
2023-05-07T15:54:12.144Z,98458.53
2023-05-07T15:59:59.766Z,98454.59
2023-05-07T16:05:25.956Z,98461.06
2023-05-07T16:11:00.503Z,98456.63
2023-05-07T16:16:20.060Z,98460.38
2023-05-07T16:22:07.162Z,98448.16
2023-05-07T16:27:39.042Z,98450.81
2023-05-07T16:32:58.723Z,98452.72
2023-05-07T16:39:12.385Z,98455.13
2023-05-07T16:44:54.516Z,98462.97
2023-05-07T16:50:16.650Z,98445.31
2023-05-07T16:55:58.255Z,98444.47
2023-05-07T17:01:39.631Z,98445.03
2023-05-07T17:13:08.679Z,98464.94
2023-05-07T17:18:56.703Z,98470.91
2023-05-07T17:30:25.133Z,98480.81
2023-05-07T17:36:17.155Z,98490.94
2023-05-07T17:42:30.250Z,98491.22
2023-05-07T17:54:25.727Z,98490.97
2023-05-07T18:12:57.961Z,98514.34
2023-05-07T18:18:42.285Z,98507.91
2023-05-07T18:24:02.654Z,98523.22
2023-05-07T18:29:04.101Z,98517.34
2023-05-07T18:34:06.304Z,98529.19
2023-05-07T18:39:08.578Z,98534.63
2023-05-07T18:44:10.046Z,98542.38
2023-05-07T18:49:11.514Z,98541.41
2023-05-07T18:54:12.960Z,98549.44
2023-05-07T18:59:14.486Z,98560.84
2023-05-07T19:04:17.950Z,98554.88
2023-05-07T19:09:19.552Z,98562.41
2023-05-07T19:14:21.183Z,98554.94
2023-05-07T19:19:22.976Z,98547.09
2023-05-07T19:24:24.382Z,98563.28
2023-05-07T19:29:25.828Z,98566.28
2023-05-07T19:34:27.359Z,98565.63
2023-05-07T19:39:28.804Z,98567.66
2023-05-07T19:44:30.260Z,98574.69
2023-05-07T19:49:31.740Z,98580.00
2023-05-07T19:54:33.350Z,98602.34
2023-05-07T19:59:34.837Z,98598.50
2023-05-07T20:04:38.063Z,98604.34
2023-05-07T20:09:39.598Z,98597.97
2023-05-07T20:14:41.250Z,98607.31
2023-05-07T20:19:42.734Z,98607.28
2023-05-07T20:24:46.899Z,98611.78
2023-05-07T20:29:48.746Z,98610.41
2023-05-07T20:34:50.182Z,98620.25
2023-05-07T20:39:51.703Z,98628.63
2023-05-07T20:44:53.308Z,98625.13
2023-05-07T20:49:55.056Z,98630.31
2023-05-07T20:54:56.478Z,98626.13
2023-05-07T20:59:57.954Z,98624.97
2023-05-07T21:04:59.380Z,98629.34
2023-05-07T21:10:00.969Z,98619.38
2023-05-07T21:15:02.415Z,98626.88
2023-05-07T21:20:04.212Z,98627.22
2023-05-07T21:25:06.023Z,98630.72
2023-05-07T21:30:08.155Z,98636.88
2023-05-07T21:35:09.590Z,98643.19
2023-05-07T21:40:11.626Z,98645.03
2023-05-07T21:45:13.393Z,98642.69
2023-05-07T21:50:15.152Z,98645.69
2023-05-07T21:55:20.489Z,98637.69
